Time;durP1;ratioP1;P1;durP2;ratioP2;P2;SDS_P1;SDS_P2;PMS_P1;PMS_P2;Temp;Humidity;BMP_temperature;BMP_pressure;BME280_temperature;BME280_humidity;BME280_pressure;Samples;Min_cycle;Max_cycle;Signal;HPM_P1;HPM_P2
2023/09/26 00:00:38;;;;;;;9.10;2.72;;;;;;;21.74;62.79;100302.03;4384768;32;35406;-77
2023/09/26 00:03:06;;;;;;;5.72;2.87;;;;;;;21.77;62.84;100298.97;4390460;32;33841;-77
2023/09/26 00:05:34;;;;;;;6.07;2.58;;;;;;;21.78;62.90;100308.81;4388740;32;33694;-76
2023/09/26 00:08:03;;;;;;;4.95;2.83;;;;;;;21.89;62.57;100310.31;4387982;32;33521;-76
2023/09/26 00:10:31;;;;;;;8.27;3.80;;;;;;;21.78;62.56;100306.94;4388531;32;33900;-72
2023/09/26 00:12:59;;;;;;;5.97;2.72;;;;;;;21.83;62.29;100307.28;4386017;32;33668;-74
2023/09/26 00:15:26;;;;;;;4.12;1.90;;;;;;;21.90;61.95;100307.44;4390015;32;33746;-75
2023/09/26 00:17:54;;;;;;;7.25;2.95;;;;;;;21.84;62.13;100313.59;4386768;32;34743;-75
2023/09/26 00:20:26;;;;;;;7.15;3.47;;;;;;;21.90;61.45;100309.31;4387772;32;34066;-74
2023/09/26 00:22:55;;;;;;;5.80;3.20;;;;;;;21.79;61.96;100305.06;4384006;32;33741;-75
2023/09/26 00:25:23;;;;;;;5.35;2.30;;;;;;;21.82;61.91;100307.44;4388314;32;33087;-75
2023/09/26 00:27:52;;;;;;;6.35;2.70;;;;;;;21.67;62.19;100304.59;4387131;32;33597;-74
2023/09/26 00:30:21;;;;;;;4.60;2.40;;;;;;;21.71;62.29;100305.94;4388960;32;34908;-75
2023/09/26 00:32:49;;;;;;;3.92;2.50;;;;;;;21.79;62.13;100305.06;4373673;32;34076;-74
2023/09/26 00:35:17;;;;;;;5.10;2.50;;;;;;;21.67;62.39;100303.72;4386156;32;34417;-74
2023/09/26 00:37:49;;;;;;;5.03;2.35;;;;;;;21.73;61.91;100300.31;4389019;32;33551;-74
2023/09/26 00:40:21;;;;;;;5.95;2.42;;;;;;;21.58;62.32;100306.47;4386762;32;34819;-75
2023/09/26 00:42:50;;;;;;;6.62;2.83;;;;;;;21.61;62.29;100300.69;4386913;32;34085;-75
2023/09/26 00:45:18;;;;;;;5.53;2.70;;;;;;;21.60;62.21;100298.13;4389109;32;33549;-74
2023/09/26 00:47:47;;;;;;;4.35;2.58;;;;;;;21.68;61.65;100303.56;4387714;32;33697;-74
2023/09/26 00:50:14;;;;;;;5.87;2.33;;;;;;;21.57;61.62;100303.91;4372472;32;33992;-74
2023/09/26 00:52:44;;;;;;;8.95;2.92;;;;;;;21.61;61.51;100302.56;4386022;32;34900;-74
2023/09/26 00:55:14;;;;;;;3.85;2.15;;;;;;;21.58;61.70;100298.31;4341058;33;33053;-73
2023/09/26 00:57:42;;;;;;;3.75;2.00;;;;;;;21.60;61.49;100293.56;4328205;33;33755;-73
2023/09/26 01:00:14;;;;;;;9.27;2.58;;;;;;;21.63;61.23;100295.91;4338577;32;33553;-74
2023/09/26 01:02:42;;;;;;;5.35;2.25;;;;;;;21.62;61.45;100298.81;4337907;32;33311;-74
2023/09/26 01:05:10;;;;;;;6.12;2.33;;;;;;;21.68;60.94;100295.41;4340474;32;34766;-74
2023/09/26 01:07:38;;;;;;;4.97;2.75;;;;;;;21.68;60.93;100295.41;4339945;33;33976;-74
2023/09/26 01:10:10;;;;;;;10.02;3.20;;;;;;;21.52;61.41;100299.00;4341088;32;33423;-74
2023/09/26 01:12:40;;;;;;;4.87;2.90;;;;;;;21.59;61.07;100294.56;4338079;32;34939;-74
2023/09/26 01:15:10;;;;;;;5.95;2.35;;;;;;;21.59;60.91;100294.56;4343628;32;33250;-75
2023/09/26 01:17:37;;;;;;;5.80;2.12;;;;;;;21.42;61.66;100297.50;4343093;32;34115;-75
2023/09/26 01:20:14;;;;;;;6.70;2.40;;;;;;;21.53;61.19;100299.84;4342962;32;34082;-75
2023/09/26 01:22:45;;;;;;;5.35;3.10;;;;;;;21.53;60.98;100300.69;4340940;32;34959;-75
2023/09/26 01:25:15;;;;;;;4.85;2.37;;;;;;;21.45;61.50;100299.88;4340500;32;32981;-76
2023/09/26 01:27:43;;;;;;;5.82;2.87;;;;;;;21.47;61.38;100298.66;4343120;32;33522;-75
2023/09/26 01:30:11;;;;;;;7.28;2.78;;;;;;;21.36;61.60;100294.41;4342563;32;33886;-76
2023/09/26 01:32:39;;;;;;;7.07;3.00;;;;;;;21.45;61.24;100299.88;4361257;32;33673;-74
2023/09/26 01:35:07;;;;;;;6.95;2.67;;;;;;;21.45;61.38;100291.69;4387290;32;33050;-75
2023/09/26 01:37:35;;;;;;;7.43;2.55;;;;;;;21.49;61.34;100301.22;4389052;32;33914;-75
2023/09/26 01:40:03;;;;;;;9.65;3.25;;;;;;;21.53;61.07;100289.78;4389905;32;35058;-74
2023/09/26 01:42:31;;;;;;;7.03;4.60;;;;;;;21.47;61.06;100293.19;4390033;32;33772;-74
2023/09/26 01:44:58;;;;;;;4.90;2.95;;;;;;;21.45;61.07;100291.69;4383653;32;33401;-74
2023/09/26 01:47:43;;;;;;;8.50;4.57;;;;;;;21.38;61.07;100295.09;4394094;32;34757;-74
2023/09/26 01:50:11;;;;;;;4.67;2.33;;;;;;;21.33;61.63;100291.16;4389190;32;33406;-74
2023/09/26 01:52:39;;;;;;;7.00;2.97;;;;;;;21.29;61.61;100296.09;4387477;32;34056;-73
2023/09/26 01:55:11;;;;;;;8.40;4.20;;;;;;;21.28;61.61;100293.53;4389288;32;33284;-73
2023/09/26 01:57:38;;;;;;;9.88;3.60;;;;;;;21.25;61.89;100294.75;4389213;32;35007;-73
2023/09/26 02:00:13;;;;;;;6.75;3.20;;;;;;;21.27;61.81;100294.56;4388468;32;33669;-72
2023/09/26 02:02:43;;;;;;;11.95;4.22;;;;;;;21.18;62.25;100291.81;4388261;32;35185;-73
2023/09/26 02:05:12;;;;;;;9.77;5.57;;;;;;;21.20;62.55;100297.13;4388253;32;32561;-73
2023/09/26 02:07:39;;;;;;;8.02;3.90;;;;;;;21.17;62.77;100292.84;4382099;32;34054;-72
2023/09/26 02:10:08;;;;;;;4.78;2.30;;;;;;;20.94;63.96;100295.41;4389670;32;35186;-72
2023/09/26 02:12:37;;;;;;;12.20;5.25;;;;;;;21.22;63.23;100300.53;4388743;32;34258;-73
2023/09/26 02:15:08;;;;;;;7.50;4.15;;;;;;;21.15;63.26;100291.31;4374860;32;33492;-73
2023/09/26 02:17:36;;;;;;;8.23;4.78;;;;;;;21.11;63.34;100298.97;4389995;32;32791;-73
2023/09/26 02:20:12;;;;;;;7.55;3.17;;;;;;;21.08;63.77;100291.16;4390609;32;34147;-73
2023/09/26 02:22:47;;;;;;;6.68;3.90;;;;;;;21.38;63.03;100299.69;4386814;32;34717;-72
2023/09/26 02:25:16;;;;;;;5.05;2.90;;;;;;;21.32;62.93;100290.31;4387311;32;33957;-72
2023/09/26 02:27:44;;;;;;;8.93;3.22;;;;;;;21.54;62.17;100293.38;4390191;32;33623;-71
2023/09/26 02:30:13;;;;;;;6.45;3.28;;;;;;;21.58;61.95;100298.31;4389930;32;33957;-72
2023/09/26 02:32:41;;;;;;;4.72;2.75;;;;;;;21.63;61.06;100289.59;4387126;32;34242;-72
2023/09/26 02:35:12;;;;;;;12.70;3.08;;;;;;;21.58;61.23;100290.12;4389243;32;33931;-72
2023/09/26 02:37:40;;;;;;;5.85;3.00;;;;;;;21.62;60.91;100291.47;4390069;32;34891;-72
2023/09/26 02:40:10;;;;;;;17.98;2.97;;;;;;;21.58;60.96;100306.47;4390323;32;35082;-72
2023/09/26 02:42:40;;;;;;;8.48;2.90;;;;;;;21.62;60.95;100298.81;4388249;32;33482;-73
2023/09/26 02:45:08;;;;;;;4.40;2.42;;;;;;;21.61;61.11;100297.97;4386258;32;32944;-73
2023/09/26 02:47:36;;;;;;;7.07;3.10;;;;;;;21.61;61.07;100303.41;4389842;32;33511;-73
2023/09/26 02:50:05;;;;;;;6.87;2.87;;;;;;;21.49;61.89;100303.94;4390535;32;35126;-72
2023/09/26 02:52:32;;;;;;;5.10;2.83;;;;;;;21.72;61.68;100304.91;4392768;32;34427;-73
2023/09/26 02:55:00;;;;;;;7.18;4.25;;;;;;;21.78;61.65;100298.78;4389750;32;33179;-73
2023/09/26 02:57:28;;;;;;;6.85;4.68;;;;;;;21.91;61.13;100295.50;4390808;32;33785;-74
2023/09/26 02:59:56;;;;;;;7.57;4.45;;;;;;;21.72;61.42;100299.47;4390812;32;33784;-74
2023/09/26 03:02:24;;;;;;;7.47;4.28;;;;;;;21.93;61.20;100304.38;4387818;32;34273;-73
2023/09/26 03:04:52;;;;;;;9.02;5.40;;;;;;;22.01;61.37;100303.47;4388980;32;33763;-73
2023/09/26 03:07:19;;;;;;;5.80;3.40;;;;;;;22.07;61.14;100302.78;4391395;32;34160;-73
2023/09/26 03:09:47;;;;;;;6.65;3.80;;;;;;;22.12;60.81;100303.12;4391343;32;33570;-73
2023/09/26 03:12:14;;;;;;;4.68;2.70;;;;;;;22.10;60.56;100297.81;4389504;32;34305;-73
2023/09/26 03:14:42;;;;;;;9.18;3.40;;;;;;;22.01;60.63;100301.59;4389283;32;34457;-73
2023/09/26 03:17:10;;;;;;;8.20;4.22;;;;;;;22.09;60.62;100298.88;4387510;32;33542;-74
2023/09/26 03:19:38;;;;;;;7.65;3.70;;;;;;;22.14;60.55;100297.47;4393708;32;35256;-74
2023/09/26 03:22:06;;;;;;;8.43;3.67;;;;;;;22.07;61.07;100294.59;4392612;32;34015;-73
2023/09/26 03:24:33;;;;;;;7.50;4.32;;;;;;;22.17;60.98;100299.88;4389691;32;33278;-74
2023/09/26 03:27:01;;;;;;;6.40;3.72;;;;;;;22.24;60.46;100303.59;4389218;32;33459;-72
2023/09/26 03:29:29;;;;;;;7.28;4.12;;;;;;;22.19;60.58;100301.41;4375457;32;33876;-71
2023/09/26 03:31:56;;;;;;;6.53;3.53;;;;;;;22.24;60.22;100298.13;4389844;32;34045;-71
2023/09/26 03:34:24;;;;;;;7.00;4.12;;;;;;;22.22;60.16;100303.78;4385355;32;33154;-71
2023/09/26 03:36:53;;;;;;;6.25;3.80;;;;;;;22.23;60.15;100296.44;4388745;32;34346;-71
2023/09/26 03:39:20;;;;;;;8.05;4.37;;;;;;;22.14;60.91;100301.03;4389230;32;34902;-71
2023/09/26 03:41:48;;;;;;;9.25;4.25;;;;;;;22.37;60.23;100303.03;4388408;32;34212;-71
2023/09/26 03:44:15;;;;;;;6.50;3.58;;;;;;;22.37;60.32;100306.59;4373924;32;33450;-71
2023/09/26 03:46:43;;;;;;;8.32;3.70;;;;;;;22.43;60.17;100305.03;4388464;32;34639;-74
2023/09/26 03:49:11;;;;;;;7.00;4.32;;;;;;;22.49;59.88;100299.72;4388603;32;35271;-74
2023/09/26 03:51:38;;;;;;;6.25;4.20;;;;;;;22.41;60.13;100305.25;4389347;32;35196;-74
2023/09/26 03:54:06;;;;;;;8.07;3.97;;;;;;;22.42;60.06;100306.94;4392145;32;33642;-74
2023/09/26 03:56:33;;;;;;;6.57;4.28;;;;;;;22.42;60.10;100301.47;4388431;32;35040;-74
2023/09/26 03:59:01;;;;;;;15.85;5.47;;;;;;;22.38;60.29;100310.19;4390892;32;33703;-71
2023/09/26 04:01:29;;;;;;;8.93;4.68;;;;;;;22.46;60.03;100304.69;4384845;32;34934;-74
2023/09/26 04:03:57;;;;;;;7.10;3.75;;;;;;;22.50;59.75;100301.44;4386824;32;33377;-74
2023/09/26 04:06:24;;;;;;;10.27;4.72;;;;;;;22.37;60.18;100298.41;4390660;32;35032;-72
2023/09/26 04:08:52;;;;;;;8.15;4.57;;;;;;;22.42;60.09;100300.63;4388971;32;33704;-71
2023/09/26 04:11:20;;;;;;;6.05;3.92;;;;;;;22.37;60.31;100301.16;4390026;32;34363;-73
2023/09/26 04:13:48;;;;;;;13.07;7.47;;;;;;;22.46;60.10;100305.53;4386224;32;33555;-74
2023/09/26 04:16:16;;;;;;;11.73;4.43;;;;;;;22.43;60.01;100302.31;4376095;32;34993;-74
2023/09/26 04:18:45;;;;;;;8.88;5.68;;;;;;;22.43;60.01;100302.31;4376055;32;34084;-74
2023/09/26 04:21:12;;;;;;;6.15;3.55;;;;;;;22.39;60.12;100307.28;4389727;32;33710;-74
2023/09/26 04:23:40;;;;;;;7.40;4.05;;;;;;;22.51;59.56;100305.88;4396493;32;33682;-74
2023/09/26 04:26:10;;;;;;;8.88;4.50;;;;;;;22.62;59.08;100298.31;4397028;32;33345;-74
2023/09/26 04:28:37;;;;;;;10.27;5.60;;;;;;;22.63;58.96;100310.91;4372750;32;35269;-72
2023/09/26 04:31:05;;;;;;;7.97;4.75;;;;;;;22.61;58.97;100304.78;4390476;32;33794;-74
2023/09/26 04:33:33;;;;;;;7.57;4.03;;;;;;;22.59;59.00;100304.97;4389935;32;33509;-73
2023/09/26 04:36:00;;;;;;;10.82;4.90;;;;;;;22.54;58.53;100315.56;4387978;32;33777;-73
2023/09/26 04:38:29;;;;;;;6.37;4.10;;;;;;;22.52;58.19;100312.16;4389775;32;35015;-72
2023/09/26 04:41:00;;;;;;;10.50;4.65;;;;;;;22.47;58.42;100320.91;4388683;32;33991;-72
2023/09/26 04:43:28;;;;;;;10.52;5.03;;;;;;;22.38;58.75;100318.37;4389219;32;34416;-70
2023/09/26 04:45:55;;;;;;;8.27;4.75;;;;;;;22.35;58.98;100321.47;4390089;32;34998;-69
2023/09/26 04:48:24;;;;;;;9.30;5.37;;;;;;;22.41;59.14;100320.75;4388585;32;34177;-70
2023/09/26 04:50:51;;;;;;;6.37;3.97;;;;;;;22.31;59.71;100326.41;4390379;32;34022;-70
2023/09/26 04:53:19;;;;;;;10.35;7.30;;;;;;;22.40;59.50;100319.88;4391674;32;33847;-70
2023/09/26 04:55:46;;;;;;;8.05;5.85;;;;;;;22.21;59.93;100326.59;4391855;32;34730;-70
2023/09/26 04:58:14;;;;;;;10.90;6.72;;;;;;;22.38;59.48;100324.69;4386830;32;33750;-70
2023/09/26 05:00:42;;;;;;;14.48;5.97;;;;;;;22.39;59.25;100329.09;4387164;32;33829;-70
2023/09/26 05:03:10;;;;;;;15.07;7.87;;;;;;;22.42;58.92;100326.03;4389458;32;33557;-70
2023/09/26 05:05:38;;;;;;;8.27;5.05;;;;;;;22.35;59.30;100326.91;4391829;32;33963;-70
2023/09/26 05:08:05;;;;;;;6.20;3.47;;;;;;;22.40;59.04;100332.69;4389136;32;34913;-70
2023/09/26 05:10:37;;;;;;;10.85;4.30;;;;;;;22.44;58.66;100334.88;4390255;32;33607;-70
2023/09/26 05:13:06;;;;;;;7.35;3.83;;;;;;;21.84;61.14;100335.37;4390054;32;33556;-70
2023/09/26 05:15:35;;;;;;;7.75;4.30;;;;;;;22.08;60.58;100329.84;4388924;32;33417;-70
2023/09/26 05:18:03;;;;;;;6.80;3.35;;;;;;;21.70;61.97;100330.62;4382363;32;33731;-69
2023/09/26 05:20:31;;;;;;;8.82;4.75;;;;;;;21.86;61.42;100325.13;4391300;32;35306;-70
2023/09/26 05:23:00;;;;;;;8.27;3.92;;;;;;;22.00;61.12;100324.44;4389788;32;33608;-74
2023/09/26 05:25:28;;;;;;;8.18;3.83;;;;;;;22.10;60.52;100330.53;4390116;32;33835;-70
2023/09/26 05:27:55;;;;;;;10.70;4.43;;;;;;;21.98;61.19;100331.94;4390131;32;33994;-71
2023/09/26 05:30:23;;;;;;;11.48;4.05;;;;;;;22.12;60.77;100327.66;4388908;32;33879;-71
2023/09/26 05:32:51;;;;;;;11.57;4.57;;;;;;;21.63;62.02;100330.47;4387491;32;34701;-71
2023/09/26 05:35:20;;;;;;;7.07;4.10;;;;;;;21.60;61.96;100326.25;4391215;32;33904;-71
2023/09/26 05:37:48;;;;;;;16.02;6.60;;;;;;;21.47;62.89;100339.50;4386504;32;33726;-70
2023/09/26 05:40:15;;;;;;;9.50;4.20;;;;;;;21.81;61.59;100336.56;4390861;32;34156;-70
2023/09/26 05:42:43;;;;;;;16.20;5.05;;;;;;;22.24;60.41;100334.44;4391208;32;33642;-71
2023/09/26 05:45:11;;;;;;;7.57;4.37;;;;;;;22.23;60.41;100337.34;4390618;32;34516;-71
2023/09/26 05:47:39;;;;;;;8.73;5.55;;;;;;;21.58;62.09;100341.03;4391032;32;33783;-71
2023/09/26 05:50:07;;;;;;;14.77;5.70;;;;;;;21.67;61.91;100340.00;4390796;32;35246;-71
2023/09/26 05:52:35;;;;;;;6.95;4.30;;;;;;;21.90;60.98;100342.88;4386603;32;34526;-71
2023/09/26 05:55:03;;;;;;;5.82;3.75;;;;;;;22.06;61.03;100345.56;4379758;32;33643;-71
2023/09/26 05:57:31;;;;;;;14.10;4.10;;;;;;;21.99;60.96;100341.84;4391323;32;33013;-71
2023/09/26 05:59:59;;;;;;;10.45;5.55;;;;;;;21.62;62.22;100337.78;4387794;32;33930;-71
2023/09/26 06:02:26;;;;;;;12.45;4.87;;;;;;;21.62;61.84;100342.41;4389196;32;33195;-70
2023/09/26 06:04:54;;;;;;;7.65;3.83;;;;;;;22.01;60.72;100339.75;4391061;32;34590;-70
2023/09/26 06:07:22;;;;;;;7.32;4.30;;;;;;;21.34;62.63;100333.69;4387416;32;34753;-70
2023/09/26 06:09:50;;;;;;;9.93;4.47;;;;;;;21.60;61.91;100344.44;4390502;32;34395;-70
2023/09/26 06:12:35;;;;;;;9.27;4.50;;;;;;;21.94;60.79;100341.50;4390969;32;34380;-70
2023/09/26 06:15:05;;;;;;;10.70;5.15;;;;;;;22.27;59.72;100339.53;4388119;32;33860;-70
2023/09/26 06:17:33;;;;;;;7.28;4.20;;;;;;;21.95;60.68;100334.16;4390842;32;35084;-70
2023/09/26 06:20:04;;;;;;;13.10;6.82;;;;;;;22.17;59.63;100338.06;4383768;32;34831;-70
2023/09/26 06:22:31;;;;;;;14.57;5.35;;;;;;;22.16;59.76;100334.47;4384842;32;33701;-71
2023/09/26 06:25:00;;;;;;;6.00;4.05;;;;;;;22.29;59.32;100333.91;4388080;32;33591;-70
2023/09/26 06:27:28;;;;;;;7.35;3.85;;;;;;;21.58;61.11;100336.44;4388706;32;33715;-71
2023/09/26 06:29:56;;;;;;;8.93;4.18;;;;;;;22.15;59.82;100331.87;4394650;32;35810;-70
2023/09/26 06:32:23;;;;;;;6.12;3.70;;;;;;;21.99;59.53;100333.66;4385542;32;33204;-71
2023/09/26 06:34:51;;;;;;;7.78;4.62;;;;;;;22.21;59.28;100326.59;4387963;32;33972;-71
2023/09/26 06:37:19;;;;;;;8.35;3.78;;;;;;;22.36;58.43;100332.19;4387813;32;34962;-71
2023/09/26 06:39:47;;;;;;;11.12;4.80;;;;;;;21.96;59.87;100339.44;4394253;32;33718;-70
2023/09/26 06:42:15;;;;;;;7.12;4.28;;;;;;;21.69;60.71;100337.09;4398060;32;34719;-70
2023/09/26 06:44:42;;;;;;;8.43;5.12;;;;;;;21.81;60.51;100342.03;4391075;32;33677;-70
2023/09/26 06:47:10;;;;;;;18.83;4.22;;;;;;;21.94;60.53;100341.50;4387770;32;35375;-70
2023/09/26 06:49:38;;;;;;;8.65;4.75;;;;;;;22.28;58.99;100330.34;4388776;32;33658;-71
2023/09/26 06:52:06;;;;;;;19.05;4.93;;;;;;;22.33;58.84;100336.09;4387525;32;34404;-70
2023/09/26 06:54:33;;;;;;;7.03;3.37;;;;;;;22.34;58.73;100334.22;4390306;32;33844;-70
2023/09/26 06:57:02;;;;;;;9.25;3.78;;;;;;;22.16;59.53;100334.47;4389200;32;35259;-70
2023/09/26 06:59:29;;;;;;;7.05;4.53;;;;;;;22.02;59.74;100335.16;4380001;32;33889;-70
2023/09/26 07:01:57;;;;;;;10.77;5.05;;;;;;;22.01;59.27;100331.59;4384694;32;129244;-70
2023/09/26 07:04:25;;;;;;;18.27;5.82;;;;;;;22.18;59.17;100337.00;4387203;32;34780;-70
2023/09/26 07:06:53;;;;;;;11.68;4.95;;;;;;;22.22;59.06;100333.78;4386288;32;34007;-71
2023/09/26 07:09:20;;;;;;;8.20;4.07;;;;;;;22.72;57.60;100339.84;4388438;32;33828;-70
2023/09/26 07:11:48;;;;;;;8.68;4.40;;;;;;;22.27;58.83;100344.16;4390832;32;33342;-70
2023/09/26 07:14:15;;;;;;;7.35;4.30;;;;;;;22.44;58.77;100343.06;4384994;32;33828;-70
2023/09/26 07:16:46;;;;;;;9.40;4.97;;;;;;;22.64;57.86;100345.37;4389942;32;36336;-70
2023/09/26 07:19:14;;;;;;;8.45;5.00;;;;;;;22.83;56.70;100339.47;4389576;32;34961;-70
2023/09/26 07:21:42;;;;;;;11.95;7.15;;;;;;;22.98;57.10;100337.66;4391270;32;33243;-70
2023/09/26 07:24:10;;;;;;;15.40;4.87;;;;;;;22.29;58.58;100342.09;4386594;32;35288;-71
2023/09/26 07:26:39;;;;;;;11.45;5.15;;;;;;;22.84;57.90;100335.69;4389716;32;34205;-71
2023/09/26 07:29:07;;;;;;;9.52;4.05;;;;;;;23.09;56.42;100343.75;4392929;32;33970;-71
2023/09/26 07:31:35;;;;;;;12.15;5.75;;;;;;;23.13;55.93;100345.09;4389130;32;34074;-71
2023/09/26 07:34:03;;;;;;;11.55;5.10;;;;;;;23.02;56.54;100346.38;4389223;32;35039;-71
2023/09/26 07:36:32;;;;;;;7.55;4.07;;;;;;;22.03;59.05;100351.34;4389506;32;33959;-70
2023/09/26 07:38:59;;;;;;;9.93;4.75;;;;;;;22.76;57.90;100357.56;4388411;32;35015;-70
2023/09/26 07:41:27;;;;;;;6.40;3.65;;;;;;;23.58;55.31;100348.81;4387752;32;33629;-70
2023/09/26 07:43:55;;;;;;;7.10;4.53;;;;;;;24.13;53.17;100358.53;4388460;32;35598;-70
2023/09/26 07:46:23;;;;;;;10.98;5.68;;;;;;;24.16;53.11;100361.75;4389964;32;34148;-71
2023/09/26 07:48:51;;;;;;;11.25;4.90;;;;;;;24.02;53.81;100362.59;4387802;32;33961;-69
2023/09/26 07:51:19;;;;;;;8.65;5.55;;;;;;;23.55;54.72;100366.41;4388715;32;33376;-70
2023/09/26 07:53:46;;;;;;;9.25;5.55;;;;;;;23.36;55.57;100364.19;4390772;32;33995;-70
2023/09/26 07:56:14;;;;;;;8.07;5.55;;;;;;;22.86;56.90;100366.37;4389151;32;33847;-70
2023/09/26 07:58:42;;;;;;;7.03;4.62;;;;;;;23.00;57.29;100372.97;4390513;32;33965;-71
2023/09/26 08:01:09;;;;;;;8.20;5.15;;;;;;;23.63;56.24;100369.09;4387191;32;33405;-71
2023/09/26 08:03:38;;;;;;;16.45;4.70;;;;;;;23.82;55.65;100370.50;4387715;32;34613;-70
2023/09/26 08:06:06;;;;;;;6.47;4.18;;;;;;;23.93;55.13;100367.28;4375505;32;34192;-70
2023/09/26 08:08:34;;;;;;;8.18;4.72;;;;;;;23.66;55.14;100368.72;4388976;32;34042;-70
2023/09/26 08:11:08;;;;;;;16.10;6.72;;;;;;;23.90;55.29;100373.13;4389257;32;33646;-71
2023/09/26 08:13:37;;;;;;;8.85;4.95;;;;;;;23.77;55.96;100375.66;4386906;32;33204;-71
2023/09/26 08:16:05;;;;;;;8.80;5.25;;;;;;;23.78;55.52;100371.88;4385968;32;33524;-70
2023/09/26 08:18:33;;;;;;;12.55;5.87;;;;;;;22.88;58.56;100380.69;4389609;32;35268;-70
2023/09/26 08:21:01;;;;;;;10.75;5.50;;;;;;;23.27;57.50;100373.47;4388500;32;33643;-71
2023/09/26 08:23:28;;;;;;;14.35;6.62;;;;;;;23.58;56.69;100379.72;4389790;32;33626;-70
2023/09/26 08:26:04;;;;;;;9.23;4.43;;;;;;;23.69;56.96;100368.41;4389048;32;34392;-70
2023/09/26 08:28:32;;;;;;;14.15;6.18;;;;;;;23.56;56.42;100370.00;4388481;32;34181;-71
2023/09/26 08:31:09;;;;;;;9.68;4.43;;;;;;;23.59;56.75;100375.94;4389840;32;34028;-71
2023/09/26 08:33:37;;;;;;;10.48;5.68;;;;;;;23.42;57.78;100374.41;4388850;32;33672;-71
2023/09/26 08:36:15;;;;;;;8.52;4.65;;;;;;;23.68;56.49;100371.25;4386369;32;35051;-70
2023/09/26 08:38:44;;;;;;;11.80;5.95;;;;;;;23.59;57.01;100375.09;4387477;32;34165;-72
2023/09/26 08:41:12;;;;;;;13.77;4.57;;;;;;;23.35;57.57;100373.44;4381078;32;32737;-71
2023/09/26 08:43:40;;;;;;;9.77;6.00;;;;;;;23.65;56.97;100375.22;4374115;32;33368;-71
2023/09/26 08:46:08;;;;;;;10.23;4.45;;;;;;;23.49;56.85;100369.88;4372747;32;34246;-70
2023/09/26 08:48:36;;;;;;;11.88;6.03;;;;;;;23.89;55.51;100363.25;4368338;32;33890;-71
2023/09/26 08:51:04;;;;;;;9.95;5.15;;;;;;;24.05;54.76;100369.59;4339558;32;32554;-70
2023/09/26 08:53:32;;;;;;;8.68;4.00;;;;;;;23.60;55.92;100374.09;4341540;32;32614;-68
2023/09/26 08:55:59;;;;;;;7.28;4.97;;;;;;;23.57;56.08;100369.00;4344258;32;34162;-68
2023/09/26 08:58:27;;;;;;;7.78;4.90;;;;;;;24.08;54.58;100366.47;4349258;32;34217;-70
2023/09/26 09:00:55;;;;;;;10.70;5.62;;;;;;;23.83;55.43;100354.94;4342481;32;33312;-67
2023/09/26 09:03:23;;;;;;;11.23;5.30;;;;;;;24.04;54.38;100363.25;4344915;32;33629;-68
2023/09/26 09:05:51;;;;;;;10.57;5.85;;;;;;;24.04;54.52;100357.78;4344875;32;33873;-69
2023/09/26 09:08:22;;;;;;;12.80;5.45;;;;;;;23.72;55.27;100364.41;4343193;32;33995;-69
2023/09/26 09:10:53;;;;;;;14.20;6.75;;;;;;;23.79;55.05;100362.66;4342077;32;33260;-69
2023/09/26 09:13:30;;;;;;;20.67;6.65;;;;;;;24.01;54.53;100360.03;4353189;32;33576;-70
2023/09/26 09:16:12;;;;;;;12.57;6.65;;;;;;;24.20;54.23;100367.69;4357648;32;34253;-70
2023/09/26 09:18:44;;;;;;;17.75;6.70;;;;;;;24.33;53.37;100359.69;4353478;32;33815;-70
2023/09/26 09:21:22;;;;;;;10.02;6.18;;;;;;;24.41;52.93;100358.75;4359601;32;33683;-69
2023/09/26 09:23:51;;;;;;;7.85;5.53;;;;;;;24.69;51.87;100366.25;4389073;32;33718;-70
2023/09/26 09:26:20;;;;;;;10.05;4.85;;;;;;;24.73;51.98;100359.37;4388441;32;33736;-70
2023/09/26 09:28:49;;;;;;;10.27;6.12;;;;;;;24.57;53.04;100358.56;4387533;32;34079;-70
2023/09/26 09:31:18;;;;;;;11.68;6.53;;;;;;;24.78;51.50;100357.78;4351443;32;33423;-70
2023/09/26 09:33:47;;;;;;;10.10;7.62;;;;;;;24.93;51.62;100356.88;4341662;32;33774;-70
2023/09/26 09:36:14;;;;;;;9.40;4.85;;;;;;;25.29;50.64;100354.97;4343700;32;33980;-70
2023/09/26 09:38:42;;;;;;;8.93;5.95;;;;;;;24.71;51.43;100353.25;4348465;32;33867;-70
2023/09/26 09:41:10;;;;;;;8.90;5.40;;;;;;;25.20;50.72;100347.06;4348465;32;33520;-70
2023/09/26 09:43:37;;;;;;;12.45;6.35;;;;;;;25.42;50.74;100351.50;4341789;32;33641;-69
2023/09/26 09:46:08;;;;;;;10.55;6.05;;;;;;;24.77;49.60;100342.37;4347594;32;33868;-69
2023/09/26 09:48:46;;;;;;;15.32;6.15;;;;;;;24.76;49.17;100343.41;4348763;32;35282;-70
2023/09/26 09:51:15;;;;;;;10.68;6.53;;;;;;;25.16;49.32;100335.66;4342536;32;33497;-70
2023/09/26 09:53:50;;;;;;;7.72;4.68;;;;;;;25.54;47.98;100333.47;4339115;32;35045;-69
2023/09/26 09:56:19;;;;;;;8.10;5.20;;;;;;;25.59;48.92;100330.16;4346546;32;33496;-69
2023/09/26 09:58:49;;;;;;;6.37;4.43;;;;;;;25.77;46.67;100326.91;4330178;32;34840;-69
2023/09/26 10:01:21;;;;;;;13.55;4.32;;;;;;;25.84;47.34;100321.50;4333478;32;32215;-69
2023/09/26 10:03:52;;;;;;;12.93;6.65;;;;;;;25.89;47.42;100324.50;4371527;32;35129;-69
2023/09/26 10:06:20;;;;;;;7.62;5.05;;;;;;;25.65;47.55;100321.16;4371925;32;33864;-71
2023/09/26 10:08:49;;;;;;;11.27;5.87;;;;;;;25.71;47.43;100312.09;4370519;32;35192;-72
2023/09/26 10:11:18;;;;;;;14.68;7.05;;;;;;;26.23;46.24;100304.47;4358818;32;34265;-69
2023/09/26 10:13:47;;;;;;;10.98;5.87;;;;;;;26.21;45.38;100307.41;4373168;32;34959;-69
2023/09/26 10:16:17;;;;;;;9.98;5.65;;;;;;;26.01;45.82;100307.28;4372152;32;34730;-70
2023/09/26 10:18:47;;;;;;;13.15;6.53;;;;;;;25.94;45.67;100305.53;4371110;32;34362;-69
2023/09/26 10:21:20;;;;;;;8.45;4.85;;;;;;;26.64;44.00;100306.34;4372313;32;34511;-70
2023/09/26 10:24:13;;;;;;;12.55;5.12;;;;;;;25.89;45.75;100297.94;4371586;32;33523;-70
2023/09/26 10:26:45;;;;;;;13.82;6.00;;;;;;;26.61;43.50;100306.75;4369723;32;33742;-71
2023/09/26 10:29:24;;;;;;;9.60;4.80;;;;;;;26.63;43.05;100301.91;4371013;32;34113;-70
2023/09/26 10:32:04;;;;;;;9.07;4.75;;;;;;;25.92;43.79;100289.31;4375309;32;34732;-71
2023/09/26 10:34:52;;;;;;;11.57;4.93;;;;;;;26.12;44.60;100297.63;4388239;32;34886;-70
2023/09/26 10:37:21;;;;;;;6.65;4.40;;;;;;;26.68;43.26;100286.53;4388280;32;33921;-70
2023/09/26 10:39:49;;;;;;;11.48;6.00;;;;;;;26.98;42.74;100282.56;4377854;32;34209;-70
2023/09/26 10:42:22;;;;;;;11.05;5.60;;;;;;;27.25;41.96;100278.81;4389230;32;33542;-70
2023/09/26 10:44:53;;;;;;;8.52;4.65;;;;;;;27.24;40.83;100285.38;4388911;32;34128;-70
2023/09/26 10:47:22;;;;;;;8.88;4.65;;;;;;;26.96;40.60;100277.28;4391280;32;34228;-70
2023/09/26 10:49:50;;;;;;;8.50;4.40;;;;;;;27.13;40.76;100270.38;4385571;32;33955;-71
2023/09/26 10:52:18;;;;;;;7.75;3.75;;;;;;;27.31;38.96;100271.63;4387427;32;34441;-71
2023/09/26 10:54:46;;;;;;;13.93;5.37;;;;;;;26.92;39.81;100281.50;4387226;32;34724;-71
2023/09/26 10:57:18;;;;;;;14.73;5.12;;;;;;;27.14;40.37;100266.56;4381874;32;33795;-70
2023/09/26 10:59:46;;;;;;;9.50;4.55;;;;;;;27.55;39.29;100271.00;4384794;32;34133;-70
2023/09/26 11:02:13;;;;;;;7.65;4.35;;;;;;;27.76;38.13;100267.13;4386651;32;33439;-70
2023/09/26 11:04:41;;;;;;;10.18;6.43;;;;;;;27.46;37.85;100261.28;4387122;32;34073;-70
2023/09/26 11:07:10;;;;;;;10.32;5.07;;;;;;;27.16;38.56;100264.44;4388502;32;34716;-70
2023/09/26 11:09:40;;;;;;;8.00;4.90;;;;;;;26.79;39.35;100268.59;4355166;32;35054;-69
2023/09/26 11:12:08;;;;;;;10.25;4.40;;;;;;;27.44;37.99;100263.38;4369064;32;34055;-68
2023/09/26 11:14:36;;;;;;;11.93;5.85;;;;;;;27.23;37.81;100258.13;4370919;32;33527;-68
2023/09/26 11:17:06;;;;;;;12.18;5.37;;;;;;;27.20;37.78;100256.63;4367893;32;34070;-71
2023/09/26 11:19:34;;;;;;;12.65;5.10;;;;;;;27.52;37.82;100260.44;4370399;32;34133;-71
2023/09/26 11:22:02;;;;;;;11.85;4.70;;;;;;;27.81;37.81;100248.13;4354264;32;33091;-73
2023/09/26 11:24:31;;;;;;;12.55;6.05;;;;;;;26.95;38.75;100251.72;4355498;32;33874;-72
2023/09/26 11:27:08;;;;;;;13.07;4.37;;;;;;;27.18;38.38;100248.59;4355571;32;32657;-71
2023/09/26 11:29:36;;;;;;;10.88;5.15;;;;;;;27.25;38.41;100245.00;4361573;32;33701;-71